Latest Weather Observations for Parafield

IDS60801

Issued at 10:05 pm CST Wednesday 20 August 2014 (issued every 30 minutes, with the page automatically refreshed every 10 minutes)

About weather observations | Map of weather stations | Latest weather observations for SA | Other Formats
Station Details ID: 023013 Name: PARAFIELD AIRPORT Lat: -34.80 Lon: 138.63 Height: 9.5 m
Data from the previous 72 hours. | See also: Recent months at Parafield
Date/Time
CST
Temp
°C
App
Temp
°C
Dew
Point
Rel
Hum
%
Delta-T
°C
Wind Press
QNH
hPa
Press
MSL
hPa
Rain
since 9 am
mm
Dir
 
Spd
km/h
Gust
km/h
Spd
kts
Gust
kts
20/10:00pm 9.7 4.4 3.0 63 2.9 ESE 20 28 11 15 1027.0 1027.0 0.0
20/09:30pm 9.5 4.4 3.3 65 2.7 ESE 19 26 10 14 1027.1 1027.1 0.0
20/09:00pm 9.7 4.7 3.7 66 2.6 ESE 19 26 10 14 1027.0 1027.0 0.0
20/08:30pm 9.5 4.9 3.5 66 2.6 ESE 17 24 9 13 1026.8 1026.8 0.0
20/08:00pm 9.2 5.4 3.8 69 2.4 ESE 13 19 7 10 1027.0 1027.0 0.0
20/07:30pm 9.3 5.5 3.9 69 2.3 SE 13 15 7 8 1026.9 1026.9 0.0
20/07:00pm 10.6 6.1 4.3 65 2.8 ESE 17 22 9 12 1026.8 1026.8 0.0
20/06:30pm 10.4 6.8 5.0 69 2.4 SE 13 17 7 9 1026.6 1026.6 0.0
20/06:00pm 10.9 7.7 5.2 68 2.6 ESE 11 15 6 8 1026.4 1026.4 0.0
20/05:30pm 11.3 9.0 5.6 68 2.6 SSW 7 9 4 5 1026.3 1026.3 0.0
20/05:00pm 12.8 9.8 6.2 64 3.1 SSW 11 13 6 7 1026.2 1026.2 0.0
20/04:30pm 13.6 10.1 5.3 57 3.9 SSW 13 17 7 9 1026.2 1026.2 0.0
20/04:00pm 14.0 10.4 5.1 55 4.2 SW 13 17 7 9 1026.1 1026.1 0.0
20/03:30pm 14.5 11.0 5.3 54 4.3 SW 13 19 7 10 1026.1 1026.1 0.0
20/03:00pm 14.1 9.7 4.9 54 4.3 SW 17 22 9 12 1026.2 1026.2 0.0
20/02:30pm 14.4 10.3 6.3 58 3.9 W 17 22 9 12 1026.2 1026.2 0.0
20/02:00pm 13.5 9.0 5.9 60 3.6 W 19 24 10 13 1026.2 1026.2 0.0
20/01:30pm 13.6 9.5 6.2 61 3.5 W 17 22 9 12 1026.2 1026.2 0.0
20/01:00pm 14.0 9.9 6.4 60 3.6 WSW 17 22 9 12 1026.5 1026.5 0.0
20/12:30pm 15.5 12.9 6.0 53 4.5 ESE 9 11 5 6 1026.9 1026.9 0.0
20/12:00pm 15.1 12.6 3.9 47 5.1 NE 6 11 3 6 1027.4 1027.4 0.0
20/11:30am 13.7 10.7 4.3 53 4.3 ENE 9 13 5 7 1027.8 1027.8 0.0
20/11:00am 14.2 11.0 5.3 55 4.2 ENE 11 17 6 9 1027.9 1027.9 0.0
20/10:30am 13.5 9.1 4.6 55 4.1 ESE 17 22 9 12 1028.0 1028.0 0.0
20/10:00am 13.3 9.0 5.2 58 3.8 E 17 22 9 12 1028.1 1028.1 0.0
20/09:30am 12.5 7.6 4.2 57 3.7 ESE 19 24 10 13 1028.0 1028.0 0.0
20/09:00am 11.7 5.9 4.4 61 3.3 E 24 32 13 17 1027.9 1027.9 0.0
20/08:30am 10.7 5.7 4.6 66 2.7 E 20 30 11 16 1027.7 1027.7 0.0
20/08:00am 9.4 4.6 4.4 71 2.2 ESE 19 24 10 13 1027.5 1027.5 0.0
20/07:30am 6.0 4.6 3.5 84 1.0 CALM 0 0 0 0 1027.3 1027.3 0.0
20/07:00am 4.1 1.9 3.1 93 0.4 S 4 11 2 6 1027.1 1027.1 0.0
20/06:30am 3.6 2.0 2.6 93 0.4 CALM 0 7 0 4 1026.9 1026.9 0.0
20/06:00am 3.4 1.4 2.2 92 0.5 SE 2 7 1 4 1026.7 1026.7 0.0
20/05:30am 3.6 1.6 2.1 90 0.6 S 2 6 1 3 1026.6 1026.6 0.0
20/05:00am 4.1 2.1 2.3 88 0.7 N 2 7 1 4 1026.5 1026.5 0.0
20/04:30am 6.7 4.1 4.0 83 1.1 NW 7 11 4 6 1026.3 1026.3 0.0
20/04:00am 6.0 3.6 4.2 88 0.8 WNW 6 7 3 4 1026.1 1026.1 0.0
20/03:30am 5.8 3.3 4.0 88 0.8 NNW 6 9 3 5 1025.9 1025.9 0.0
20/03:00am 7.8 5.0 5.3 84 1.1 SSE 9 13 5 7 1026.0 1026.0 0.0
20/02:30am 6.4 2.5 5.4 93 0.4 SE 15 17 8 9 1026.1 1026.1 0.0
20/02:00am 4.4 1.8 3.2 92 0.5 SSE 6 7 3 4 1026.4 1026.4 0.0
20/01:30am 4.4 1.6 2.9 90 0.6 SSE 7 9 4 5 1026.4 1026.4 0.0
20/01:00am 5.4 2.9 3.7 89 0.7 SE 6 7 3 4 1026.5 1026.5 0.0
20/12:30am 5.1 2.3 3.1 87 0.8 SE 7 9 4 5 1026.6 1026.6 0.0
20/12:00am 6.3 2.9 4.1 86 0.9 E 11 15 6 8 1026.6 1026.6 0.0
 
Date/Time
CST
Temp
°C
App
Temp
°C
Dew
Point
Rel
Hum
%
Delta-T
°C
Wind Press
QNH
hPa
Press
MSL
hPa
Rain
since 9 am
mm
Dir
 
Spd
km/h
Gust
km/h
Spd
kts
Gust
kts
19/11:30pm 7.0 3.6 4.1 82 1.2 SSW 11 11 6 6 1026.7 1026.7 0.0
19/11:00pm 9.4 7.6 5.6 77 1.7 S 4 7 2 4 1026.8 1026.8 0.0
19/10:30pm 9.9 8.1 5.3 73 2.1 S 4 6 2 3 1026.9 1026.9 0.0
19/10:00pm 9.8 7.7 5.6 75 1.9 S 6 7 3 4 1027.0 1027.0 0.0
19/09:30pm 10.1 7.9 5.3 72 2.2 SSE 6 7 3 4 1027.0 1027.0 0.0
19/09:00pm 10.3 8.1 5.3 71 2.3 SSE 6 9 3 5 1027.1 1027.1 0.0
19/08:30pm 10.3 7.9 5.3 71 2.3 SSE 7 9 4 5 1027.1 1027.1 0.0
19/08:00pm 10.5 7.7 5.1 69 2.5 SE 9 11 5 6 1027.0 1027.0 0.0
19/07:30pm 10.4 7.6 5.0 69 2.4 SSE 9 11 5 6 1026.9 1026.9 0.0
19/07:00pm 11.1 7.3 4.1 62 3.1 SSE 13 15 7 8 1026.6 1026.6 0.0
19/06:30pm 11.8 6.8 3.6 57 3.6 SSE 19 26 10 14 1026.2 1026.2 0.0
19/06:00pm 11.5 7.8 4.3 61 3.2 SSE 13 17 7 9 1025.9 1025.9 0.0
19/05:30pm 12.2 7.2 3.7 56 3.8 SSE 19 24 10 13 1025.5 1025.5 0.0
19/05:00pm 12.6 8.1 4.1 56 3.8 SE 17 24 9 13 1025.3 1025.3 0.0
19/04:30pm 13.6 8.8 4.7 55 4.1 SE 19 24 10 13 1025.1 1025.1 0.0
19/04:00pm 13.9 9.5 4.5 53 4.3 SE 17 22 9 12 1024.8 1024.8 0.0
19/03:30pm 13.7 9.5 4.0 52 4.4 SSE 15 20 8 11 1024.9 1024.9 0.0
19/03:00pm 14.5 11.3 5.0 53 4.4 S 11 15 6 8 1025.0 1025.0 0.0
19/02:30pm 13.8 9.4 4.7 54 4.2 SSE 17 20 9 11 1025.0 1025.0 0.0
19/02:00pm 14.8 12.1 3.9 48 5.0 S 7 15 4 8 1025.0 1025.0 0.0
19/01:30pm 14.8 11.8 3.9 48 5.0 SE 9 15 5 8 1025.1 1025.1 0.0
19/01:00pm 13.4 10.1 4.3 54 4.2 SSE 11 17 6 9 1025.5 1025.5 0.0
19/12:30pm 13.0 9.3 4.2 55 4.0 SE 13 17 7 9 1026.1 1026.1 0.0
19/12:00pm 13.1 9.4 4.3 55 4.0 SE 13 20 7 11 1026.4 1026.4 0.0
19/11:30am 13.3 10.8 6.4 63 3.3 SSE 9 15 5 8 1026.7 1026.7 0.0
19/11:00am 12.7 10.4 5.6 62 3.3 SSE 7 11 4 6 1027.1 1027.1 0.0
19/10:30am 12.5 10.3 5.2 61 3.4 ENE 6 9 3 5 1027.2 1027.2 0.0
19/10:00am 11.1 8.3 5.0 66 2.8 SE 9 15 5 8 1027.3 - 0.0
19/09:30am 11.1 6.7 4.8 65 2.8 SE 17 24 9 13 1027.2 1027.2 0.0
19/09:00am 11.7 9.3 6.8 72 2.3 ESE 9 11 5 6 1027.0 1027.0 0.0
19/08:30am 10.7 8.2 6.6 76 1.9 SE 9 13 5 7 1026.7 1026.7 0.0
19/08:00am 9.3 7.3 6.9 85 1.1 SE 7 11 4 6 1026.6 - 0.0
19/07:30am 7.8 5.3 6.6 92 0.5 E 9 11 5 6 1026.4 1026.4 0.0
19/07:00am 7.1 5.8 6.0 93 0.5 W 2 6 1 3 1026.2 - 0.0
19/06:30am 7.3 5.3 6.1 92 0.5 N 6 6 3 3 1025.9 1025.9 0.0
19/06:00am 6.9 6.0 6.0 94 0.4 CALM 0 0 0 0 1025.7 1025.7 0.0
19/05:30am 6.8 5.9 5.9 94 0.4 CALM 0 0 0 0 1025.5 1025.5 0.0
19/05:00am 6.6 4.5 5.9 95 0.3 E 6 9 3 5 1025.3 - 0.0
19/04:30am 6.4 4.7 5.8 96 0.3 W 4 7 2 4 1025.1 1025.1 0.0
19/04:00am 6.1 5.1 5.5 96 0.3 CALM 0 0 0 0 1025.2 - 0.0
19/03:30am 5.8 4.7 5.2 96 0.3 CALM 0 0 0 0 1025.2 1025.2 0.0
19/03:00am 5.7 4.6 5.1 96 0.3 CALM 0 6 0 3 1025.2 1025.2 0.0
19/02:30am 5.1 3.9 4.5 96 0.3 CALM 0 0 0 0 1025.4 1025.4 0.0
19/02:00am 4.5 2.4 3.9 96 0.3 NE 4 7 2 4 1025.7 - 0.0
19/01:30am 3.7 2.2 3.0 95 0.3 CALM 0 0 0 0 1025.8 1025.8 0.0
19/01:20am 3.4 1.8 2.7 95 0.3 CALM 0 0 0 0 1025.8 - 0.0
19/01:00am 3.0 1.3 2.1 94 0.4 CALM 0 4 0 2 1025.9 - 0.0
19/12:30am 3.5 0.8 2.6 94 0.4 ENE 6 7 3 4 1025.7 1025.7 0.0
19/12:00am 3.7 0.8 2.7 93 0.4 NE 7 7 4 4 1025.9 1025.9 0.0
 
Date/Time
CST
Temp
°C
App
Temp
°C
Dew
Point
Rel
Hum
%
Delta-T
°C
Wind Press
QNH
hPa
Press
MSL
hPa
Rain
since 9 am
mm
Dir
 
Spd
km/h
Gust
km/h
Spd
kts
Gust
kts
18/11:30pm 4.5 2.7 3.5 93 0.4 E 2 6 1 3 1026.1 1026.1 0.0
18/11:00pm 5.4 4.1 4.2 92 0.5 CALM 0 0 0 0 1026.3 - 0.0
18/10:30pm 5.5 4.2 4.0 90 0.6 CALM 0 0 0 0 1026.3 1026.3 0.0
18/10:00pm 5.9 4.7 4.4 90 0.6 CALM 0 0 0 0 1026.1 - 0.0
18/09:30pm 6.8 5.6 4.6 86 0.9 CALM 0 0 0 0 1026.0 1026.0 0.0
18/09:00pm 7.4 5.1 4.9 84 1.1 S 6 7 3 4 1025.9 1025.9 0.0
18/08:30pm 7.4 5.5 4.9 84 1.1 SSE 4 6 2 3 1025.6 1025.6 0.0
18/08:00pm 7.7 4.5 5.0 83 1.2 SE 11 13 6 7 1025.3 - 0.0
18/07:30pm 7.5 4.8 3.7 77 1.6 SSE 7 9 4 5 1025.3 1025.3 0.0
18/07:00pm 8.9 5.9 4.3 73 2.0 S 9 9 5 5 1024.9 - 0.0
18/06:30pm 9.7 6.1 4.9 72 2.1 SSE 13 17 7 9 1024.5 1024.5 0.0
18/06:00pm 11.4 7.9 7.1 75 2.0 SSW 15 19 8 10 1024.1 1024.1 0.0
18/05:30pm 12.0 7.7 6.9 71 2.4 SSW 19 28 10 15 1023.7 1023.7 0.0
18/05:00pm 13.5 9.1 6.4 62 3.4 SW 19 26 10 14 1023.3 - 0.0
18/04:30pm 14.5 10.3 7.5 63 3.4 SSW 19 24 10 13 1023.1 1023.1 0.0
18/04:00pm 13.8 10.3 7.1 64 3.3 S 15 20 8 11 1022.9 - 0.0
18/03:30pm 14.4 12.2 6.3 58 3.9 SSW 7 11 4 6 1022.8 1022.8 0.0
18/03:00pm 15.3 12.3 7.6 60 3.8 SW 13 19 7 10 1022.9 1022.9 0.0
18/02:30pm 13.7 9.4 7.2 65 3.2 SSW 19 24 10 13 1022.9 1022.9 0.0
18/02:00pm 13.9 12.1 7.2 64 3.3 S 6 11 3 6 1023.0 - 0.0
18/01:30pm 14.3 12.7 8.0 66 3.1 SSW 6 11 3 6 1023.2 1023.2 0.0
18/01:00pm 13.3 11.6 7.5 68 2.8 SSW 6 9 3 5 1023.5 - 0.0
18/12:30pm 12.2 9.4 7.1 71 2.4 SE 11 17 6 9 1023.9 1023.9 0.0
18/12:00pm 14.0 12.1 7.5 65 3.2 W 7 11 4 6 1024.3 1024.3 0.0
18/11:30am 12.1 9.6 8.0 76 2.0 SW 11 17 6 9 1024.7 1024.7 0.0
18/11:00am 12.3 10.0 7.6 73 2.3 WSW 9 15 5 8 1024.9 - 0.0
18/10:30am 12.8 10.9 7.7 71 2.5 SW 7 11 4 6 1025.0 1025.0 0.0
18/10:00am 12.6 10.7 7.5 71 2.5 WSW 7 11 4 6 1025.2 - 0.0
18/09:30am 11.5 10.4 8.4 81 1.5 WNW 4 7 2 4 1025.2 1025.2 0.0
18/09:00am 10.5 9.3 9.7 95 0.4 NNW 6 7 3 4 1025.0 1025.0 0.0
18/08:30am 7.7 5.9 7.3 97 0.2 NNW 6 7 3 4 1025.0 1025.0 0.0
18/08:00am 7.1 4.7 6.8 98 0.1 NE 9 11 5 6 1024.8 - 0.0
18/07:30am 5.0 2.7 4.6 97 0.2 E 6 7 3 4 1024.8 1024.8 0.0
18/07:19am 4.3 1.8 3.9 97 0.2 ENE 6 7 3 4 1024.7 - 0.0
18/07:00am 3.1 1.5 2.7 97 0.2 CALM 0 2 0 1 1024.4 - 0.0
18/06:36am 4.1 2.0 3.7 97 0.2 NE 4 6 2 3 1024.2 - 0.0
18/06:30am 4.0 1.5 3.6 97 0.2 NE 6 7 3 4 1024.2 1024.2 0.0
18/06:21am 4.8 2.2 4.4 97 0.2 NE 7 9 4 5 1024.1 - 0.0
18/06:00am 5.0 2.7 4.6 97 0.2 E 6 9 3 5 1023.9 1023.9 0.0
18/05:30am 4.4 2.7 3.8 96 0.2 N 2 6 1 3 1023.6 1023.6 0.0
18/05:00am 5.9 3.5 5.3 96 0.3 NNE 7 7 4 4 1023.4 - 0.0
18/04:30am 6.1 3.9 5.5 96 0.3 N 6 7 3 4 1023.2 1023.2 0.0
18/04:09am 6.4 4.3 5.8 96 0.3 NNE 6 9 3 5 1023.1 - 0.0
18/04:00am 7.3 5.2 6.7 96 0.3 NE 7 9 4 5 1023.0 - 0.0
18/03:30am 8.2 6.5 7.6 96 0.3 N 6 7 3 4 1023.0 1023.0 0.0
18/03:00am 8.5 8.0 7.9 96 0.3 CALM 0 0 0 0 1023.2 1023.2 0.0
18/02:30am 8.3 7.8 7.7 96 0.3 CALM 0 0 0 0 1023.5 1023.5 0.0
18/02:00am 8.3 7.8 7.7 96 0.3 CALM 0 0 0 0 1023.7 - 0.0
18/01:30am 8.8 8.4 8.2 96 0.3 CALM 0 0 0 0 1023.9 1023.9 0.0
18/01:00am 8.5 8.0 7.9 96 0.3 CALM 0 0 0 0 1023.8 - 0.0
18/12:30am 8.2 7.6 7.6 96 0.3 CALM 0 0 0 0 1023.8 1023.8 0.0
18/12:00am 7.8 7.2 7.2 96 0.3 CALM 0 0 0 0 1023.8 1023.8 0.0
 
Date/Time
CST
Temp
°C
App
Temp
°C
Dew
Point
Rel
Hum
%
Delta-T
°C
Wind Press
QNH
hPa
Press
MSL
hPa
Rain
since 9 am
mm
Dir
 
Spd
km/h
Gust
km/h
Spd
kts
Gust
kts
17/11:30pm 7.4 5.9 6.8 96 0.3 E 4 6 2 3 1023.8 1023.8 0.0
17/11:00pm 6.3 4.6 5.7 96 0.3 S 4 6 2 3 1023.8 - 0.0
17/10:56pm 6.3 4.2 5.6 95 0.3 S 6 6 3 3 1023.8 - 0.0
17/10:40pm 6.2 4.0 5.3 94 0.4 SW 6 7 3 4 1023.7 - 0.0
17/10:30pm 6.6 5.2 5.7 94 0.4 W 2 7 1 4 1023.7 1023.7 0.0

Other Formats:

Comma delimited format used in spreadsheet applications
http://www.bom.gov.au/fwo/IDS60801/IDS60801.95677.axf

JavaScript Object Notation format (JSON) in row-major order
http://www.bom.gov.au/fwo/IDS60801/IDS60801.95677.json